Terminal Aerodrome Forecast
Issued by NWS Boise, ID

Home | Current Version | Previous Version | Text Only | Print | Product List | Glossary On
Versions: 1 2 3 4 5 6 7 8 9 10 11 12 13 14 15 16 17 18 19 20 21 22 23 24 25 26 27 28 29 30 31 32 33 34 35 36 37 38
787
FTUS45 KBOI 250528
TAFBNO
TAF
KBNO 250528Z 2506/2606 24006KT P6SM SCT040 BKN070
     FM251000 21006KT P6SM OVC100
     FM251900 21015G21KT P6SM OVC050
     FM260000 21016G23KT 2SM -SN OVC015=

USA.gov is the U.S. government's official web portal to all federal, state and local government web resources and services.